Other Surface Observations
Issued by NWS Missoula, MT

Home | Current Version | Previous Version | Text Only | Print | Product List | Glossary On
Versions: 1 2 3 4 5 6 7 8 9 10 11 12 13 14 15 16 17 18 19 20 21 22 23 24 25 26 27 28 29 30 31 32 33 34 35 36 37 38 39 40 41 42 43 44 45 46 47 48 49 50
000
SXUS55 KMSO 201813
OSOMSO
MONTANA AWOS SUMMARY
NATIONAL WEATHER SERVICE MISSOULA MT
1213 PM MDT WED SEP 20 2017

Montana AWOS Reports

PLAINS      |KS34 201755Z AUTO 00000KT 40SM 09/04 A2964 RMK AO1 T00940044
TWIN BRIDGES|K7S1 201755Z AUTO 00000KT 40SM 09/M02 A2967 RMK AO1 T00941016
SCOBEY      |K9S2 201755Z AUTO 23016G21KT 40SM 14/M01 A2956 RMK AO1 T01441010
EKALAKA     |K97M 201755Z AUTO VRB04KT 40SM 16/M03 A2971 RMK AO1 T01561032
ROUNDUP     |KRPX 201755Z AUTO 19016G23KT 40SM 15/M04 A2955 RMK AO1 T01501038
ROUNDUP     |KRPX 201755Z AUTO 19016G23KT 40SM 15/M04 A2955 RMK AO1 T01501038




USA.gov is the U.S. government's official web portal to all federal, state and local government web resources and services.